createdAt,value
2022-09-20T00:01:24.567Z,6.60
2022-09-20T00:03:54.113Z,6.45
2022-09-20T00:06:23.709Z,6.42
2022-09-20T00:08:50.596Z,6.37
2022-09-20T00:11:23.039Z,6.47
2022-09-20T00:13:51.509Z,6.56
2022-09-20T00:16:21.189Z,6.62
2022-09-20T00:18:52.182Z,6.59
2022-09-20T00:21:21.020Z,6.61
2022-09-20T00:23:47.609Z,6.55
2022-09-20T00:26:14.514Z,6.52
2022-09-20T00:28:41.859Z,6.57
2022-09-20T00:31:08.413Z,6.60
2022-09-20T00:33:53.623Z,6.63
2022-09-20T00:36:20.254Z,6.59
2022-09-20T00:38:47.536Z,6.57
2022-09-20T00:41:13.924Z,6.56
2022-09-20T00:43:43.027Z,6.44
2022-09-20T00:46:27.824Z,6.28
2022-09-20T00:48:59.616Z,6.14
2022-09-20T00:51:31.296Z,6.01
2022-09-20T00:54:02.587Z,5.95
2022-09-20T00:56:36.089Z,6.09
2022-09-20T00:59:07.221Z,6.13
2022-09-20T01:01:33.777Z,6.10
2022-09-20T01:04:01.003Z,6.21
2022-09-20T01:06:28.631Z,6.22
2022-09-20T01:08:58.047Z,6.25
2022-09-20T01:11:26.049Z,6.25
2022-09-20T01:13:52.539Z,6.29
2022-09-20T01:16:20.574Z,6.26
2022-09-20T01:18:48.585Z,6.23
2022-09-20T01:21:17.386Z,6.17
2022-09-20T01:23:56.322Z,6.09
2022-09-20T01:26:41.445Z,5.91
2022-09-20T01:29:31.794Z,5.75
2022-09-20T01:32:03.511Z,5.81
2022-09-20T01:34:40.097Z,5.85
2022-09-20T01:37:32.707Z,5.79
2022-09-20T01:40:12.055Z,5.69
2022-09-20T01:42:46.675Z,5.70
2022-09-20T01:45:28.471Z,5.86
2022-09-20T01:48:07.243Z,5.72
2022-09-20T01:51:10.564Z,5.62
2022-09-20T01:54:11.024Z,5.67
2022-09-20T01:56:57.430Z,5.35
2022-09-20T02:00:01.865Z,5.28
2022-09-20T02:03:07.849Z,5.13
2022-09-20T02:05:47.717Z,5.08
2022-09-20T02:08:49.481Z,5.01
2022-09-20T02:11:29.208Z,4.98
2022-09-20T02:14:08.822Z,5.18
2022-09-20T02:16:55.699Z,4.81
2022-09-20T02:19:49.248Z,5.25
2022-09-20T02:22:28.457Z,5.19
2022-09-20T02:25:04.076Z,5.29
2022-09-20T02:27:46.950Z,5.23
2022-09-20T02:30:53.973Z,5.14
2022-09-20T02:33:36.811Z,5.01
2022-09-20T02:36:27.905Z,4.87
2022-09-20T02:39:12.053Z,4.80
2022-09-20T02:42:03.460Z,4.89
2022-09-20T02:45:00.123Z,4.94
2022-09-20T02:47:42.956Z,4.99
2022-09-20T02:50:40.789Z,5.13
2022-09-20T02:53:31.516Z,5.16
2022-09-20T02:56:18.524Z,5.19
2022-09-20T02:58:51.014Z,5.17
2022-09-20T03:01:35.062Z,5.23
2022-09-20T03:04:23.331Z,5.28
2022-09-20T03:06:49.660Z,5.30
2022-09-20T03:09:35.060Z,5.23
2022-09-20T03:12:37.805Z,5.26
2022-09-20T03:15:16.442Z,5.22
2022-09-20T03:17:53.413Z,5.21
2022-09-20T03:20:32.030Z,5.24
2022-09-20T03:23:20.423Z,5.25
2022-09-20T03:25:52.874Z,5.33
2022-09-20T03:28:44.019Z,5.26
2022-09-20T03:31:22.484Z,5.25
2022-09-20T03:34:09.506Z,5.11
2022-09-20T03:36:59.509Z,5.05
2022-09-20T03:39:28.636Z,4.96
2022-09-20T03:42:15.902Z,4.92
2022-09-20T03:45:21.280Z,4.96
2022-09-20T03:48:14.026Z,5.09
2022-09-20T03:51:02.249Z,5.15
2022-09-20T03:53:39.894Z,5.08
2022-09-20T03:56:21.343Z,5.10
2022-09-20T03:59:09.722Z,5.22
2022-09-20T04:01:58.168Z,5.22
2022-09-20T04:04:42.470Z,5.19
2022-09-20T04:07:46.890Z,5.13
2022-09-20T04:10:28.150Z,5.20
2022-09-20T04:13:35.494Z,5.29
2022-09-20T04:16:18.825Z,5.27
2022-09-20T04:18:56.643Z,5.29
2022-09-20T04:21:44.333Z,5.38
2022-09-20T04:24:41.903Z,5.39
2022-09-20T04:27:27.234Z,5.31
2022-09-20T04:30:05.387Z,5.36
2022-09-20T04:33:01.913Z,5.40
2022-09-20T04:36:12.162Z,5.47
2022-09-20T04:38:39.336Z,5.51
2022-09-20T04:41:12.018Z,5.36
2022-09-20T04:44:04.856Z,5.35
2022-09-20T04:46:56.193Z,5.48
2022-09-20T04:49:47.058Z,5.38
2022-09-20T04:52:46.638Z,5.39
2022-09-20T04:55:44.729Z,5.52
2022-09-20T04:58:38.391Z,5.42
2022-09-20T05:01:17.618Z,5.47
2022-09-20T05:04:12.826Z,5.55
2022-09-20T05:07:16.989Z,5.61
2022-09-20T05:09:58.873Z,5.65
2022-09-20T05:12:40.510Z,5.65
2022-09-20T05:15:12.962Z,5.76
2022-09-20T05:17:51.826Z,5.80
2022-09-20T05:20:37.165Z,5.80
2022-09-20T05:23:27.025Z,5.81
2022-09-20T05:26:10.150Z,5.81
2022-09-20T05:29:04.936Z,5.79
2022-09-20T05:31:45.589Z,5.73
2022-09-20T05:34:33.945Z,5.82
2022-09-20T05:37:16.594Z,5.82
2022-09-20T05:39:54.377Z,5.83
2022-09-20T05:42:29.980Z,5.87
2022-09-20T05:45:09.983Z,5.84
2022-09-20T05:47:55.100Z,5.75
2022-09-20T05:50:40.217Z,5.75
2022-09-20T05:53:33.516Z,5.84
2022-09-20T05:56:13.746Z,5.95
2022-09-20T05:58:54.190Z,5.93
2022-09-20T06:01:31.382Z,5.97
2022-09-20T06:04:17.647Z,6.06
2022-09-20T06:07:03.452Z,6.07
2022-09-20T06:09:41.356Z,6.12
2022-09-20T06:12:23.982Z,6.15
2022-09-20T06:15:21.475Z,6.17
2022-09-20T06:18:08.268Z,6.24
2022-09-20T06:20:50.322Z,6.21
2022-09-20T06:23:18.270Z,6.22
2022-09-20T06:26:02.579Z,6.31
2022-09-20T06:28:42.346Z,6.32
2022-09-20T06:31:10.570Z,6.37
2022-09-20T06:33:49.940Z,6.34
2022-09-20T06:36:41.669Z,6.37
2022-09-20T06:39:33.016Z,6.43
2022-09-20T06:42:00.501Z,6.49
2022-09-20T06:44:26.897Z,6.52
2022-09-20T06:46:54.502Z,6.62
2022-09-20T06:49:21.809Z,6.60
2022-09-20T06:51:50.670Z,6.70
2022-09-20T06:54:20.164Z,6.81
2022-09-20T06:56:48.695Z,6.86
2022-09-20T06:59:15.200Z,6.94
2022-09-20T07:01:42.569Z,7.08
2022-09-20T07:04:11.949Z,7.17
2022-09-20T07:06:39.325Z,7.32
2022-09-20T07:09:06.706Z,7.47
2022-09-20T07:11:34.953Z,7.58
2022-09-20T07:14:01.870Z,7.66
2022-09-20T07:16:28.546Z,7.68
2022-09-20T07:18:56.608Z,7.58
2022-09-20T07:21:24.226Z,7.61
2022-09-20T07:23:51.273Z,7.87
2022-09-20T07:26:22.467Z,8.14
2022-09-20T07:28:49.830Z,8.39
2022-09-20T07:31:18.210Z,8.71
2022-09-20T07:33:44.807Z,8.86
2022-09-20T07:36:12.405Z,9.02
2022-09-20T07:38:40.130Z,9.22
2022-09-20T07:41:07.421Z,9.45
2022-09-20T07:43:34.447Z,9.73
2022-09-20T07:46:00.954Z,10.10
2022-09-20T07:48:36.038Z,10.40
2022-09-20T07:51:08.557Z,10.64
2022-09-20T07:53:35.930Z,10.94
2022-09-20T07:56:13.045Z,11.06
2022-09-20T07:58:40.122Z,11.41
2022-09-20T08:01:12.460Z,11.60
2022-09-20T08:03:39.547Z,11.81
2022-09-20T08:06:11.404Z,11.87
2022-09-20T08:08:40.553Z,11.87
2022-09-20T08:11:09.637Z,11.93
2022-09-20T08:16:29.433Z,12.19
2022-09-20T08:19:01.003Z,12.29
2022-09-20T08:21:31.422Z,12.38
2022-09-20T08:23:59.004Z,12.27
2022-09-20T08:26:27.532Z,12.30
2022-09-20T08:28:56.216Z,12.27
2022-09-20T08:31:25.225Z,12.26
2022-09-20T08:33:52.920Z,12.24
2022-09-20T08:36:22.975Z,12.26
2022-09-20T08:41:44.109Z,12.27
2022-09-20T08:44:45.040Z,12.25
2022-09-20T08:47:22.018Z,12.30
2022-09-20T08:49:56.918Z,12.31
2022-09-20T08:52:37.098Z,12.34
2022-09-20T08:55:26.561Z,12.44
2022-09-20T08:57:55.152Z,12.33
2022-09-20T09:00:31.842Z,12.42
2022-09-20T09:03:26.538Z,12.05
2022-09-20T09:05:55.268Z,11.79
2022-09-20T09:08:38.888Z,12.09
2022-09-20T09:11:09.446Z,12.27
2022-09-20T09:14:04.482Z,12.02
2022-09-20T09:16:35.699Z,12.17
2022-09-20T09:19:34.251Z,12.33
2022-09-20T09:22:03.996Z,12.54
2022-09-20T09:24:33.280Z,12.84
2022-09-20T09:27:16.615Z,13.06
2022-09-20T09:29:53.953Z,13.16
2022-09-20T09:32:29.112Z,13.25
2022-09-20T09:34:57.183Z,13.33
2022-09-20T09:37:29.252Z,13.45
2022-09-20T09:40:17.534Z,13.47
2022-09-20T09:42:53.828Z,13.53
2022-09-20T09:45:40.569Z,13.43
2022-09-20T09:48:25.112Z,12.88
2022-09-20T09:51:11.005Z,12.83
2022-09-20T09:53:39.264Z,13.30
2022-09-20T09:56:28.802Z,13.48
2022-09-20T09:59:19.813Z,13.28
2022-09-20T10:02:02.533Z,12.84
2022-09-20T10:04:38.581Z,12.73
2022-09-20T10:07:13.697Z,13.30
2022-09-20T10:09:54.375Z,13.51
2022-09-20T10:12:46.601Z,13.66
2022-09-20T10:15:26.670Z,13.55
2022-09-20T10:18:05.181Z,13.75
2022-09-20T10:20:40.929Z,14.01
2022-09-20T10:24:03.238Z,13.51
2022-09-20T10:27:06.223Z,12.89
2022-09-20T10:29:46.161Z,13.31
2022-09-20T10:32:33.956Z,13.62
2022-09-20T10:35:06.424Z,13.90
2022-09-20T10:37:40.264Z,13.98
2022-09-20T10:40:24.799Z,13.91
2022-09-20T10:43:17.167Z,13.48
2022-09-20T10:46:33.183Z,12.99
2022-09-20T10:49:38.016Z,12.58
2022-09-20T10:52:24.008Z,12.92
2022-09-20T10:55:25.412Z,12.60
2022-09-20T10:58:16.622Z,12.67
2022-09-20T11:01:02.196Z,12.94
2022-09-20T11:03:54.770Z,13.50
2022-09-20T11:07:02.672Z,13.46
2022-09-20T11:09:38.237Z,13.63
2022-09-20T11:12:17.051Z,13.58
2022-09-20T11:14:56.760Z,13.93
2022-09-20T11:17:38.808Z,14.24
2022-09-20T11:20:16.633Z,13.81
2022-09-20T11:22:55.497Z,13.75
2022-09-20T11:25:34.470Z,14.19
2022-09-20T11:28:36.272Z,14.46
2022-09-20T11:31:26.723Z,14.65
2022-09-20T11:34:05.315Z,14.89
2022-09-20T11:37:00.769Z,14.93
2022-09-20T11:39:40.812Z,14.57
2022-09-20T11:42:14.398Z,14.82
2022-09-20T11:44:42.203Z,15.09
2022-09-20T11:47:50.004Z,15.23
2022-09-20T11:50:38.328Z,15.06
2022-09-20T11:53:24.294Z,14.74
2022-09-20T11:56:08.828Z,14.81
2022-09-20T11:58:50.908Z,14.84
2022-09-20T12:01:29.260Z,14.53
2022-09-20T12:04:21.014Z,14.43
2022-09-20T12:06:47.460Z,14.02
2022-09-20T12:09:27.700Z,13.78
2022-09-20T12:11:55.127Z,14.13
2022-09-20T12:14:30.050Z,14.01
2022-09-20T12:16:57.018Z,14.31
2022-09-20T12:19:33.850Z,14.77
2022-09-20T12:22:00.481Z,14.95
2022-09-20T12:24:32.125Z,15.14
2022-09-20T12:27:01.342Z,14.88
2022-09-20T12:29:29.570Z,14.73
2022-09-20T12:32:00.082Z,14.79
2022-09-20T12:34:26.604Z,14.73
2022-09-20T12:36:56.179Z,13.97
2022-09-20T12:39:34.580Z,14.13
2022-09-20T12:42:22.919Z,14.19
2022-09-20T12:44:49.629Z,13.90
2022-09-20T12:47:25.040Z,13.16
2022-09-20T12:50:12.767Z,12.43
2022-09-20T12:52:53.270Z,12.23
2022-09-20T12:55:41.188Z,12.13
2022-09-20T12:58:20.956Z,12.00
2022-09-20T13:00:59.969Z,11.68
2022-09-20T13:03:37.679Z,11.85
2022-09-20T13:06:07.200Z,11.82
2022-09-20T13:08:48.081Z,11.90
2022-09-20T13:11:24.806Z,11.76
2022-09-20T13:14:06.946Z,11.80
2022-09-20T13:16:49.644Z,11.84
2022-09-20T13:19:30.659Z,11.66
2022-09-20T13:21:59.914Z,11.89
2022-09-20T13:24:47.973Z,11.84
2022-09-20T13:27:19.818Z,11.61
2022-09-20T13:29:46.656Z,11.45
2022-09-20T13:32:25.446Z,11.72
2022-09-20T13:35:10.094Z,11.85
2022-09-20T13:37:48.177Z,11.84
2022-09-20T13:40:21.188Z,11.79
2022-09-20T13:43:12.904Z,12.16
2022-09-20T13:45:42.669Z,12.13
2022-09-20T13:48:09.735Z,12.13
2022-09-20T13:50:40.046Z,11.69
2022-09-20T13:53:39.365Z,11.81
2022-09-20T13:56:13.959Z,11.89
2022-09-20T13:58:40.825Z,11.77
2022-09-20T14:01:24.230Z,11.62
2022-09-20T14:03:50.809Z,11.76
2022-09-20T14:06:17.321Z,11.52
2022-09-20T14:08:51.242Z,11.54
2022-09-20T14:11:22.349Z,11.64
2022-09-20T14:13:52.708Z,11.88
2022-09-20T14:16:22.295Z,11.90
2022-09-20T14:18:49.798Z,11.85
2022-09-20T14:21:23.356Z,11.77
2022-09-20T14:24:02.134Z,11.87
2022-09-20T14:26:40.192Z,11.96
2022-09-20T14:29:29.585Z,11.99
2022-09-20T14:31:58.809Z,12.03
2022-09-20T14:34:25.610Z,11.92
2022-09-20T14:37:24.138Z,12.07
2022-09-20T14:39:56.299Z,11.96
2022-09-20T14:42:45.813Z,11.82
2022-09-20T14:45:29.053Z,11.80
2022-09-20T14:48:25.966Z,11.76
2022-09-20T14:51:18.234Z,11.93
2022-09-20T14:53:46.762Z,11.97
2022-09-20T14:56:15.854Z,12.09
2022-09-20T14:59:24.633Z,12.31
2022-09-20T15:01:53.918Z,12.32
2022-09-20T15:04:25.864Z,12.56
2022-09-20T15:06:53.066Z,12.70
2022-09-20T15:09:21.705Z,12.79
2022-09-20T15:11:59.813Z,12.74
2022-09-20T15:14:26.344Z,12.77
2022-09-20T15:16:52.770Z,12.79
2022-09-20T15:19:19.871Z,12.68
2022-09-20T15:21:46.556Z,12.69
2022-09-20T15:24:12.943Z,12.70
2022-09-20T15:26:39.771Z,12.76
2022-09-20T15:29:07.797Z,12.30
2022-09-20T15:31:34.594Z,12.56
2022-09-20T15:34:01.258Z,12.46
2022-09-20T15:36:31.772Z,12.45
2022-09-20T15:38:58.549Z,12.42
2022-09-20T15:41:29.131Z,12.50
2022-09-20T15:43:57.601Z,12.64
2022-09-20T15:46:27.134Z,12.80
2022-09-20T15:48:54.421Z,12.90
2022-09-20T15:51:21.170Z,12.92
2022-09-20T15:53:55.325Z,13.00
2022-09-20T15:56:23.854Z,13.09
2022-09-20T15:59:01.669Z,12.99
2022-09-20T16:01:35.393Z,12.90
2022-09-20T16:04:07.062Z,12.46
2022-09-20T16:06:34.257Z,12.57
2022-09-20T16:09:00.664Z,12.51
2022-09-20T16:11:27.964Z,12.19
2022-09-20T16:13:58.502Z,12.03
2022-09-20T16:16:26.805Z,12.02
2022-09-20T16:19:12.014Z,12.15
2022-09-20T16:21:40.423Z,12.13
2022-09-20T16:24:07.473Z,12.18
2022-09-20T16:26:35.743Z,12.19
2022-09-20T16:29:04.567Z,12.04
2022-09-20T16:31:40.036Z,12.17
2022-09-20T16:34:12.570Z,12.12
2022-09-20T16:36:41.399Z,12.23
2022-09-20T16:39:08.074Z,12.15
2022-09-20T16:41:34.500Z,12.18
2022-09-20T16:44:01.075Z,12.20
2022-09-20T16:46:28.164Z,12.10
2022-09-20T16:48:56.726Z,12.15
2022-09-20T16:51:25.850Z,12.23
2022-09-20T16:53:55.950Z,12.10
2022-09-20T16:56:25.741Z,12.06
2022-09-20T16:58:53.294Z,11.74
2022-09-20T17:01:20.753Z,11.62
2022-09-20T17:03:47.866Z,11.56
2022-09-20T17:06:16.132Z,11.63
2022-09-20T17:08:43.655Z,11.66
2022-09-20T17:11:16.480Z,11.75
2022-09-20T17:13:45.173Z,11.65
2022-09-20T17:16:14.350Z,11.72
2022-09-20T17:18:42.702Z,11.71
2022-09-20T17:21:16.658Z,11.59
2022-09-20T17:23:50.069Z,11.54
2022-09-20T17:26:20.072Z,11.48
2022-09-20T17:28:51.629Z,11.44
2022-09-20T17:31:21.269Z,11.12
2022-09-20T17:33:48.683Z,11.39
2022-09-20T17:36:18.867Z,11.27
2022-09-20T17:38:48.038Z,11.23
2022-09-20T17:41:19.309Z,11.22
2022-09-20T17:43:47.253Z,11.24
2022-09-20T17:46:22.172Z,11.45
2022-09-20T17:48:55.514Z,11.67
2022-09-20T17:51:25.252Z,11.82
2022-09-20T17:53:53.156Z,11.77
2022-09-20T17:56:23.156Z,11.73
2022-09-20T17:58:49.554Z,11.66
2022-09-20T18:01:22.254Z,11.57
2022-09-20T18:03:49.796Z,11.39
2022-09-20T18:06:22.289Z,11.43
2022-09-20T18:09:01.151Z,11.39
2022-09-20T18:11:32.235Z,11.36
2022-09-20T18:14:00.309Z,11.29
2022-09-20T18:16:27.157Z,11.37
2022-09-20T18:18:53.717Z,11.32
2022-09-20T18:21:25.409Z,11.31
2022-09-20T18:23:52.846Z,11.27
2022-09-20T18:26:24.495Z,11.24
2022-09-20T18:29:14.447Z,11.27
2022-09-20T18:31:54.158Z,11.19
2022-09-20T18:34:30.329Z,11.15
2022-09-20T18:36:58.394Z,11.16
2022-09-20T18:39:32.521Z,11.17
2022-09-20T18:41:59.873Z,10.97
2022-09-20T18:44:27.540Z,10.80
2022-09-20T18:46:54.180Z,10.64
2022-09-20T18:49:21.598Z,10.53
2022-09-20T18:51:48.925Z,10.42
2022-09-20T18:54:15.416Z,10.26
2022-09-20T18:56:43.930Z,10.18
2022-09-20T18:59:25.101Z,10.32
2022-09-20T19:01:53.252Z,10.28
2022-09-20T19:04:49.750Z,10.25
2022-09-20T19:07:36.211Z,10.19
2022-09-20T19:10:05.360Z,10.23
2022-09-20T19:12:58.001Z,10.30
2022-09-20T19:15:40.063Z,10.35
2022-09-20T19:18:29.872Z,10.24
2022-09-20T19:21:10.460Z,10.12
2022-09-20T19:24:15.559Z,9.95
2022-09-20T19:26:42.401Z,9.97
2022-09-20T19:29:35.140Z,10.00
2022-09-20T19:32:01.954Z,10.05
2022-09-20T19:34:30.386Z,10.04
2022-09-20T19:37:35.200Z,10.00
2022-09-20T19:40:13.899Z,10.01
2022-09-20T19:43:03.518Z,10.03
2022-09-20T19:45:33.847Z,10.03
2022-09-20T19:48:09.118Z,10.06
2022-09-20T19:50:45.190Z,10.07
2022-09-20T19:53:14.620Z,10.05
2022-09-20T19:55:51.971Z,9.96
2022-09-20T19:58:19.073Z,9.98
2022-09-20T20:00:46.754Z,9.95
2022-09-20T20:03:14.985Z,9.89
2022-09-20T20:05:48.164Z,9.95
2022-09-20T20:08:19.021Z,9.99
2022-09-20T20:11:16.749Z,9.93
2022-09-20T20:14:04.581Z,9.93
2022-09-20T20:16:40.253Z,9.86
2022-09-20T20:19:24.956Z,9.70
2022-09-20T20:22:16.936Z,9.83
2022-09-20T20:24:53.362Z,9.82
2022-09-20T20:27:20.500Z,9.83
2022-09-20T20:29:47.070Z,9.76
2022-09-20T20:32:15.026Z,9.71
2022-09-20T20:34:41.697Z,9.72
2022-09-20T20:37:08.262Z,9.74
2022-09-20T20:39:34.662Z,9.68
2022-09-20T20:42:02.714Z,9.66
2022-09-20T20:44:30.410Z,9.70
2022-09-20T20:46:57.152Z,9.64
2022-09-20T20:49:23.610Z,9.51
2022-09-20T20:51:50.060Z,9.57
2022-09-20T20:54:16.441Z,9.53
2022-09-20T20:56:43.190Z,9.53
2022-09-20T20:59:09.721Z,9.50
2022-09-20T21:01:38.253Z,9.50
2022-09-20T21:04:05.136Z,9.56
2022-09-20T21:06:34.477Z,9.46
2022-09-20T21:09:01.982Z,9.42
2022-09-20T21:11:34.238Z,9.43
2022-09-20T21:14:04.374Z,9.36
2022-09-20T21:16:35.030Z,9.26
2022-09-20T21:19:02.438Z,9.21
2022-09-20T21:21:33.909Z,9.12
2022-09-20T21:24:02.684Z,8.87
2022-09-20T21:26:33.808Z,8.68
2022-09-20T21:29:02.398Z,8.58
2022-09-20T21:31:34.032Z,8.77
2022-09-20T21:34:00.677Z,8.71
2022-09-20T21:36:29.079Z,8.69
2022-09-20T21:38:56.375Z,8.79
2022-09-20T21:41:29.315Z,8.82
2022-09-20T21:44:00.342Z,8.55
2022-09-20T21:46:32.194Z,8.36
2022-09-20T21:49:03.954Z,8.44
2022-09-20T21:51:31.438Z,8.52
2022-09-20T21:53:59.542Z,8.49
2022-09-20T21:56:27.974Z,8.62
2022-09-20T21:58:54.989Z,8.47
2022-09-20T22:01:23.494Z,8.18
2022-09-20T22:03:52.430Z,8.41
2022-09-20T22:06:25.411Z,8.40
2022-09-20T22:08:54.154Z,8.29
2022-09-20T22:11:22.174Z,8.29
2022-09-20T22:13:50.505Z,8.26
2022-09-20T22:16:25.582Z,8.27
2022-09-20T22:18:52.644Z,8.20
2022-09-20T22:21:21.848Z,8.21
2022-09-20T22:23:50.344Z,8.05
2022-09-20T22:26:20.177Z,8.07
2022-09-20T22:28:50.281Z,8.07
2022-09-20T22:31:22.536Z,8.02
2022-09-20T22:33:51.267Z,8.00
2022-09-20T22:36:20.948Z,7.91
2022-09-20T22:38:47.449Z,7.93
2022-09-20T22:41:15.516Z,7.92
2022-09-20T22:43:42.238Z,7.82
2022-09-20T22:46:11.958Z,7.73
2022-09-20T22:48:39.794Z,7.69
2022-09-20T22:51:09.486Z,7.53
2022-09-20T22:53:36.377Z,7.60
2022-09-20T22:56:05.575Z,7.62
2022-09-20T22:58:40.843Z,7.62
2022-09-20T23:01:13.635Z,7.33
2022-09-20T23:03:42.618Z,7.40
2022-09-20T23:06:17.652Z,7.26
2022-09-20T23:08:44.054Z,7.10
2022-09-20T23:11:10.743Z,7.11
2022-09-20T23:13:37.288Z,6.64
2022-09-20T23:16:21.470Z,7.19
2022-09-20T23:18:49.853Z,7.05
2022-09-20T23:21:18.108Z,6.95
2022-09-20T23:23:45.263Z,6.67
2022-09-20T23:26:17.139Z,6.85
2022-09-20T23:28:46.255Z,6.91
2022-09-20T23:31:17.049Z,6.75
2022-09-20T23:33:51.807Z,6.86
2022-09-20T23:36:18.984Z,6.93
2022-09-20T23:38:46.639Z,6.82
2022-09-20T23:41:15.722Z,6.73
2022-09-20T23:43:42.767Z,6.82
2022-09-20T23:46:11.683Z,6.78
2022-09-20T23:48:41.258Z,6.64
2022-09-20T23:51:09.713Z,6.77
2022-09-20T23:53:36.470Z,6.57
2022-09-20T23:56:03.492Z,6.47
2022-09-20T23:58:29.884Z,6.57
